sensor_id;sensor_type;location;lat;lon;timestamp;pressure;altitude;pressure_sealevel;temperature;humidity
5062;BME280;2351;50.812;12.872;2023-08-06T00:00:27;97056.81;;;15.31;100.00
5062;BME280;2351;50.812;12.872;2023-08-06T00:02:59;97049.38;;;15.26;100.00
5062;BME280;2351;50.812;12.872;2023-08-06T00:05:30;97052.41;;;15.23;100.00
5062;BME280;2351;50.812;12.872;2023-08-06T00:08:02;97047.63;;;15.18;100.00
5062;BME280;2351;50.812;12.872;2023-08-06T00:10:35;97049.44;;;15.18;100.00
5062;BME280;2351;50.812;12.872;2023-08-06T00:13:07;97053.31;;;15.15;100.00
5062;BME280;2351;50.812;12.872;2023-08-06T00:15:39;97050.81;;;15.14;100.00
5062;BME280;2351;50.812;12.872;2023-08-06T00:18:11;97048.53;;;15.11;100.00
5062;BME280;2351;50.812;12.872;2023-08-06T00:20:42;97051.56;;;15.08;100.00
5062;BME280;2351;50.812;12.872;2023-08-06T00:23:14;97058.06;;;15.05;100.00
5062;BME280;2351;50.812;12.872;2023-08-06T00:25:47;97055.59;;;15.03;100.00
5062;BME280;2351;50.812;12.872;2023-08-06T00:28:19;97062.94;;;15.01;100.00
5062;BME280;2351;50.812;12.872;2023-08-06T00:30:52;97063.50;;;14.97;100.00
5062;BME280;2351;50.812;12.872;2023-08-06T00:33:24;97060.72;;;14.90;100.00
5062;BME280;2351;50.812;12.872;2023-08-06T00:35:56;97058.44;;;14.87;100.00
5062;BME280;2351;50.812;12.872;2023-08-06T00:38:28;97056.94;;;14.84;100.00
5062;BME280;2351;50.812;12.872;2023-08-06T00:41:01;97052.16;;;14.80;100.00
5062;BME280;2351;50.812;12.872;2023-08-06T00:43:32;97053.19;;;14.79;100.00
5062;BME280;2351;50.812;12.872;2023-08-06T00:46:04;97052.38;;;14.78;100.00
5062;BME280;2351;50.812;12.872;2023-08-06T00:48:35;97045.00;;;14.80;100.00
5062;BME280;2351;50.812;12.872;2023-08-06T00:51:07;97047.50;;;14.82;100.00
5062;BME280;2351;50.812;12.872;2023-08-06T00:53:40;97041.97;;;14.83;100.00
5062;BME280;2351;50.812;12.872;2023-08-06T00:56:13;97045.47;;;14.84;100.00
5062;BME280;2351;50.812;12.872;2023-08-06T00:58:45;97045.28;;;14.85;100.00
5062;BME280;2351;50.812;12.872;2023-08-06T01:01:17;97039.16;;;14.85;100.00
5062;BME280;2351;50.812;12.872;2023-08-06T01:03:49;97035.47;;;14.86;100.00
5062;BME280;2351;50.812;12.872;2023-08-06T01:06:33;97034.63;;;14.85;100.00
5062;BME280;2351;50.812;12.872;2023-08-06T01:09:14;97041.81;;;14.85;100.00
5062;BME280;2351;50.812;12.872;2023-08-06T01:11:59;97042.81;;;14.84;100.00
5062;BME280;2351;50.812;12.872;2023-08-06T01:14:44;97049.16;;;14.83;100.00
5062;BME280;2351;50.812;12.872;2023-08-06T01:17:17;97040.50;;;14.81;100.00
5062;BME280;2351;50.812;12.872;2023-08-06T01:19:49;97035.34;;;14.79;100.00
5062;BME280;2351;50.812;12.872;2023-08-06T01:22:22;97039.03;;;14.78;100.00
5062;BME280;2351;50.812;12.872;2023-08-06T01:24:54;97035.72;;;14.76;100.00
5062;BME280;2351;50.812;12.872;2023-08-06T01:27:29;97037.56;;;14.75;100.00
5062;BME280;2351;50.812;12.872;2023-08-06T01:30:05;97033.88;;;14.76;100.00
5062;BME280;2351;50.812;12.872;2023-08-06T01:32:43;97032.06;;;14.77;100.00
5062;BME280;2351;50.812;12.872;2023-08-06T01:35:17;97027.56;;;14.78;100.00
5062;BME280;2351;50.812;12.872;2023-08-06T01:37:52;97025.25;;;14.74;100.00
5062;BME280;2351;50.812;12.872;2023-08-06T01:40:26;97027.25;;;14.72;100.00
5062;BME280;2351;50.812;12.872;2023-08-06T01:42:59;97029.09;;;14.72;100.00
5062;BME280;2351;50.812;12.872;2023-08-06T01:45:31;97023.13;;;14.70;100.00
5062;BME280;2351;50.812;12.872;2023-08-06T01:48:03;97015.31;;;14.68;100.00
5062;BME280;2351;50.812;12.872;2023-08-06T01:50:35;97012.66;;;14.68;100.00
5062;BME280;2351;50.812;12.872;2023-08-06T01:53:08;97004.81;;;14.67;100.00
5062;BME280;2351;50.812;12.872;2023-08-06T01:55:40;97005.00;;;14.65;100.00
5062;BME280;2351;50.812;12.872;2023-08-06T01:58:11;97012.00;;;14.66;100.00
5062;BME280;2351;50.812;12.872;2023-08-06T02:00:43;97012.00;;;14.66;100.00
5062;BME280;2351;50.812;12.872;2023-08-06T02:03:15;97000.34;;;14.67;100.00
5062;BME280;2351;50.812;12.872;2023-08-06T02:05:46;97001.34;;;14.66;100.00
5062;BME280;2351;50.812;12.872;2023-08-06T02:08:19;96999.69;;;14.65;100.00
5062;BME280;2351;50.812;12.872;2023-08-06T02:10:51;96996.00;;;14.66;100.00
5062;BME280;2351;50.812;12.872;2023-08-06T02:13:24;96996.81;;;14.67;100.00
5062;BME280;2351;50.812;12.872;2023-08-06T02:15:55;96987.19;;;14.66;100.00
5062;BME280;2351;50.812;12.872;2023-08-06T02:18:27;96987.38;;;14.64;100.00
5062;BME280;2351;50.812;12.872;2023-08-06T02:20:59;96987.38;;;14.64;100.00
5062;BME280;2351;50.812;12.872;2023-08-06T02:23:32;96975.88;;;14.64;100.00
5062;BME280;2351;50.812;12.872;2023-08-06T02:26:04;96976.09;;;14.62;100.00
5062;BME280;2351;50.812;12.872;2023-08-06T02:28:36;96974.44;;;14.61;100.00
5062;BME280;2351;50.812;12.872;2023-08-06T02:31:08;96963.78;;;14.61;100.00
5062;BME280;2351;50.812;12.872;2023-08-06T02:33:39;96967.44;;;14.60;100.00
5062;BME280;2351;50.812;12.872;2023-08-06T02:36:11;96959.81;;;14.57;100.00
5062;BME280;2351;50.812;12.872;2023-08-06T02:38:44;96965.13;;;14.57;100.00
5062;BME280;2351;50.812;12.872;2023-08-06T02:41:16;96956.50;;;14.55;100.00
5062;BME280;2351;50.812;12.872;2023-08-06T02:43:48;96955.84;;;14.53;100.00
5062;BME280;2351;50.812;12.872;2023-08-06T02:46:19;96958.72;;;14.51;100.00
5062;BME280;2351;50.812;12.872;2023-08-06T02:48:51;96950.88;;;14.50;100.00
5062;BME280;2351;50.812;12.872;2023-08-06T02:51:22;96945.56;;;14.50;100.00
5062;BME280;2351;50.812;12.872;2023-08-06T02:53:56;96946.41;;;14.50;100.00
5062;BME280;2351;50.812;12.872;2023-08-06T02:56:27;96957.06;;;14.50;100.00
5062;BME280;2351;50.812;12.872;2023-08-06T02:58:59;96951.91;;;14.49;100.00
5062;BME280;2351;50.812;12.872;2023-08-06T03:01:31;96949.44;;;14.47;100.00
5062;BME280;2351;50.812;12.872;2023-08-06T03:04:04;96952.25;;;14.45;100.00
5062;BME280;2351;50.812;12.872;2023-08-06T03:06:36;96948.13;;;14.43;100.00
5062;BME280;2351;50.812;12.872;2023-08-06T03:09:09;96949.97;;;14.42;100.00
5062;BME280;2351;50.812;12.872;2023-08-06T03:11:40;96946.47;;;14.42;100.00
5062;BME280;2351;50.812;12.872;2023-08-06T03:14:12;96944.66;;;14.42;100.00
5062;BME280;2351;50.812;12.872;2023-08-06T03:16:44;96935.47;;;14.45;100.00
5062;BME280;2351;50.812;12.872;2023-08-06T03:19:15;96938.31;;;14.43;100.00
5062;BME280;2351;50.812;12.872;2023-08-06T03:21:47;96938.13;;;14.45;100.00
5062;BME280;2351;50.812;12.872;2023-08-06T03:24:20;96932.00;;;14.44;100.00
5062;BME280;2351;50.812;12.872;2023-08-06T03:29:32;96941.16;;;14.42;100.00
5062;BME280;2351;50.812;12.872;2023-08-06T03:32:04;96933.38;;;14.40;100.00
5062;BME280;2351;50.812;12.872;2023-08-06T03:34:36;96937.69;;;14.41;100.00
5062;BME280;2351;50.812;12.872;2023-08-06T03:37:08;96922.72;;;14.40;100.00
5062;BME280;2351;50.812;12.872;2023-08-06T03:39:41;96921.88;;;14.40;100.00
5062;BME280;2351;50.812;12.872;2023-08-06T03:42:12;96928.84;;;14.41;100.00
5062;BME280;2351;50.812;12.872;2023-08-06T03:44:44;96923.72;;;14.39;100.00
5062;BME280;2351;50.812;12.872;2023-08-06T03:47:16;96919.41;;;14.38;100.00
5062;BME280;2351;50.812;12.872;2023-08-06T03:49:48;96917.75;;;14.37;100.00
5062;BME280;2351;50.812;12.872;2023-08-06T03:52:20;96918.91;;;14.35;100.00
5062;BME280;2351;50.812;12.872;2023-08-06T03:54:53;96918.31;;;14.33;100.00
5062;BME280;2351;50.812;12.872;2023-08-06T03:57:24;96907.81;;;14.31;100.00
5062;BME280;2351;50.812;12.872;2023-08-06T03:59:56;96903.50;;;14.30;100.00
5062;BME280;2351;50.812;12.872;2023-08-06T04:02:28;96912.69;;;14.27;100.00
5062;BME280;2351;50.812;12.872;2023-08-06T04:05:00;96907.53;;;14.26;100.00
5062;BME280;2351;50.812;12.872;2023-08-06T04:07:32;96901.56;;;14.24;100.00
5062;BME280;2351;50.812;12.872;2023-08-06T04:10:06;96903.59;;;14.22;100.00
5062;BME280;2351;50.812;12.872;2023-08-06T04:12:37;96903.97;;;14.19;100.00
5062;BME280;2351;50.812;12.872;2023-08-06T04:15:09;96899.00;;;14.15;100.00
5062;BME280;2351;50.812;12.872;2023-08-06T04:17:41;96903.00;;;14.11;100.00
5062;BME280;2351;50.812;12.872;2023-08-06T04:20:13;96899.91;;;14.08;100.00
5062;BME280;2351;50.812;12.872;2023-08-06T04:22:44;96903.91;;;14.04;100.00
5062;BME280;2351;50.812;12.872;2023-08-06T04:25:17;96902.63;;;13.99;100.00
5062;BME280;2351;50.812;12.872;2023-08-06T04:27:51;96903.81;;;13.97;100.00
5062;BME280;2351;50.812;12.872;2023-08-06T04:30:23;96901.50;;;13.94;100.00
5062;BME280;2351;50.812;12.872;2023-08-06T04:32:56;96904.31;;;13.92;100.00
5062;BME280;2351;50.812;12.872;2023-08-06T04:35:28;96901.88;;;13.91;100.00
5062;BME280;2351;50.812;12.872;2023-08-06T04:38:00;96896.91;;;13.88;100.00
5062;BME280;2351;50.812;12.872;2023-08-06T04:40:35;96892.78;;;13.85;100.00
5062;BME280;2351;50.812;12.872;2023-08-06T04:43:07;96892.94;;;13.83;100.00
5062;BME280;2351;50.812;12.872;2023-08-06T04:45:45;96900.25;;;13.81;100.00
5062;BME280;2351;50.812;12.872;2023-08-06T04:48:17;96887.50;;;13.77;100.00
5062;BME280;2351;50.812;12.872;2023-08-06T04:50:50;96888.69;;;13.74;100.00
5062;BME280;2351;50.812;12.872;2023-08-06T04:53:22;96890.06;;;13.70;100.00
5062;BME280;2351;50.812;12.872;2023-08-06T04:55:55;96888.41;;;13.69;100.00
5062;BME280;2351;50.812;12.872;2023-08-06T04:58:26;96887.09;;;13.65;100.00
5062;BME280;2351;50.812;12.872;2023-08-06T05:00:58;96887.44;;;13.62;100.00
5062;BME280;2351;50.812;12.872;2023-08-06T05:03:30;96891.47;;;13.58;100.00
5062;BME280;2351;50.812;12.872;2023-08-06T05:06:01;96883.03;;;13.54;100.00
5062;BME280;2351;50.812;12.872;2023-08-06T05:08:33;96883.22;;;13.52;100.00
5062;BME280;2351;50.812;12.872;2023-08-06T05:11:06;96878.06;;;13.51;100.00
5062;BME280;2351;50.812;12.872;2023-08-06T05:13:38;96884.38;;;13.50;100.00
5062;BME280;2351;50.812;12.872;2023-08-06T05:16:09;96883.38;;;13.51;100.00
5062;BME280;2351;50.812;12.872;2023-08-06T05:18:41;96872.94;;;13.49;100.00
5062;BME280;2351;50.812;12.872;2023-08-06T05:21:13;96879.25;;;13.48;100.00
5062;BME280;2351;50.812;12.872;2023-08-06T05:23:45;96871.63;;;13.45;100.00
5062;BME280;2351;50.812;12.872;2023-08-06T05:26:18;96873.28;;;13.46;100.00
5062;BME280;2351;50.812;12.872;2023-08-06T05:28:50;96870.63;;;13.46;100.00
5062;BME280;2351;50.812;12.872;2023-08-06T05:31:22;96876.59;;;13.48;100.00
5062;BME280;2351;50.812;12.872;2023-08-06T05:33:54;96868.63;;;13.48;100.00
5062;BME280;2351;50.812;12.872;2023-08-06T05:36:25;96874.59;;;13.50;100.00
5062;BME280;2351;50.812;12.872;2023-08-06T05:38:57;96871.94;;;13.50;100.00
5062;BME280;2351;50.812;12.872;2023-08-06T05:41:30;96864.59;;;13.52;100.00
5062;BME280;2351;50.812;12.872;2023-08-06T05:44:02;96862.41;;;13.56;100.00
5062;BME280;2351;50.812;12.872;2023-08-06T05:46:33;96864.06;;;13.57;100.00
5062;BME280;2351;50.812;12.872;2023-08-06T05:49:05;96860.59;;;13.57;100.00
5062;BME280;2351;50.812;12.872;2023-08-06T05:51:37;96863.88;;;13.59;100.00
5062;BME280;2351;50.812;12.872;2023-08-06T05:54:08;96869.84;;;13.61;100.00
5062;BME280;2351;50.812;12.872;2023-08-06T05:56:41;96860.88;;;13.62;100.00
5062;BME280;2351;50.812;12.872;2023-08-06T05:59:13;96861.50;;;13.64;100.00
5062;BME280;2351;50.812;12.872;2023-08-06T06:01:45;96860.50;;;13.65;100.00
5062;BME280;2351;50.812;12.872;2023-08-06T06:04:16;96852.38;;;13.66;100.00
5062;BME280;2351;50.812;12.872;2023-08-06T06:06:48;96855.50;;;13.70;100.00
5062;BME280;2351;50.812;12.872;2023-08-06T06:09:20;96863.75;;;13.75;100.00
5062;BME280;2351;50.812;12.872;2023-08-06T06:11:53;96856.25;;;13.79;100.00
5062;BME280;2351;50.812;12.872;2023-08-06T06:14:25;96861.38;;;13.80;100.00
5062;BME280;2351;50.812;12.872;2023-08-06T06:16:56;96865.34;;;13.84;100.00
5062;BME280;2351;50.812;12.872;2023-08-06T06:19:28;96858.84;;;13.87;100.00
5062;BME280;2351;50.812;12.872;2023-08-06T06:22:00;96864.63;;;13.91;100.00
5062;BME280;2351;50.812;12.872;2023-08-06T06:24:31;96849.31;;;13.93;100.00
5062;BME280;2351;50.812;12.872;2023-08-06T06:27:05;96848.31;;;13.94;100.00
5062;BME280;2351;50.812;12.872;2023-08-06T06:29:36;96840.97;;;13.96;100.00
5062;BME280;2351;50.812;12.872;2023-08-06T06:32:08;96836.47;;;13.96;100.00
5062;BME280;2351;50.812;12.872;2023-08-06T06:34:40;96837.13;;;13.98;100.00
5062;BME280;2351;50.812;12.872;2023-08-06T06:37:11;96845.09;;;13.98;100.00
5062;BME280;2351;50.812;12.872;2023-08-06T06:39:43;96842.28;;;14.00;100.00
5062;BME280;2351;50.812;12.872;2023-08-06T06:42:16;96840.63;;;13.99;100.00
5062;BME280;2351;50.812;12.872;2023-08-06T06:44:48;96844.28;;;13.98;100.00
5062;BME280;2351;50.812;12.872;2023-08-06T06:47:20;96842.28;;;14.00;100.00
5062;BME280;2351;50.812;12.872;2023-08-06T06:49:52;96842.09;;;14.01;100.00
5062;BME280;2351;50.812;12.872;2023-08-06T06:52:24;96837.41;;;14.04;100.00
5062;BME280;2351;50.812;12.872;2023-08-06T06:54:55;96843.53;;;14.04;100.00
5062;BME280;2351;50.812;12.872;2023-08-06T06:57:28;96838.72;;;14.08;100.00
5062;BME280;2351;50.812;12.872;2023-08-06T07:00:00;96834.69;;;14.12;100.00
5062;BME280;2351;50.812;12.872;2023-08-06T07:02:32;96837.16;;;14.13;100.00
5062;BME280;2351;50.812;12.872;2023-08-06T07:05:04;96837.59;;;14.17;100.00
5062;BME280;2351;50.812;12.872;2023-08-06T07:07:37;96837.44;;;14.19;100.00
5062;BME280;2351;50.812;12.872;2023-08-06T07:10:09;96834.59;;;14.20;100.00
5062;BME280;2351;50.812;12.872;2023-08-06T07:12:42;96831.75;;;14.22;100.00
5062;BME280;2351;50.812;12.872;2023-08-06T07:15:14;96834.03;;;14.25;100.00
5062;BME280;2351;50.812;12.872;2023-08-06T07:17:47;96831.84;;;14.28;100.00
5062;BME280;2351;50.812;12.872;2023-08-06T07:20:19;96841.94;;;14.33;100.00
5062;BME280;2351;50.812;12.872;2023-08-06T07:22:51;96840.72;;;14.36;100.00
5062;BME280;2351;50.812;12.872;2023-08-06T07:25:23;96837.91;;;14.37;100.00
5062;BME280;2351;50.812;12.872;2023-08-06T07:27:56;96833.38;;;14.38;100.00
5062;BME280;2351;50.812;12.872;2023-08-06T07:30:28;96840.56;;;14.37;100.00
5062;BME280;2351;50.812;12.872;2023-08-06T07:32:59;96839.72;;;14.37;100.00
5062;BME280;2351;50.812;12.872;2023-08-06T07:35:31;96836.69;;;14.40;100.00
5062;BME280;2351;50.812;12.872;2023-08-06T07:38:04;96835.88;;;14.39;100.00
5062;BME280;2351;50.812;12.872;2023-08-06T07:40:36;96830.19;;;14.42;100.00
5062;BME280;2351;50.812;12.872;2023-08-06T07:43:09;96829.44;;;14.49;100.00
5062;BME280;2351;50.812;12.872;2023-08-06T07:45:40;96822.94;;;14.51;100.00
5062;BME280;2351;50.812;12.872;2023-08-06T07:48:12;96824.41;;;14.54;100.00
5062;BME280;2351;50.812;12.872;2023-08-06T07:50:44;96826.06;;;14.55;100.00
5062;BME280;2351;50.812;12.872;2023-08-06T07:53:20;96818.91;;;14.55;100.00
5062;BME280;2351;50.812;12.872;2023-08-06T07:55:53;96824.22;;;14.55;100.00
5062;BME280;2351;50.812;12.872;2023-08-06T07:58:26;96816.41;;;14.54;100.00
5062;BME280;2351;50.812;12.872;2023-08-06T08:01:00;96821.38;;;14.57;100.00
5062;BME280;2351;50.812;12.872;2023-08-06T08:03:31;96822.66;;;14.61;100.00
5062;BME280;2351;50.812;12.872;2023-08-06T08:06:03;96816.97;;;14.64;100.00
5062;BME280;2351;50.812;12.872;2023-08-06T08:08:35;96814.09;;;14.66;100.00
5062;BME280;2351;50.812;12.872;2023-08-06T08:11:09;96812.09;;;14.68;100.00
5062;BME280;2351;50.812;12.872;2023-08-06T08:13:42;96808.06;;;14.72;100.00
5062;BME280;2351;50.812;12.872;2023-08-06T08:16:14;96813.84;;;14.75;100.00
5062;BME280;2351;50.812;12.872;2023-08-06T08:18:45;96811.00;;;14.77;100.00
5062;BME280;2351;50.812;12.872;2023-08-06T08:21:17;96807.34;;;14.78;100.00
5062;BME280;2351;50.812;12.872;2023-08-06T08:23:49;96813.28;;;14.80;100.00
5062;BME280;2351;50.812;12.872;2023-08-06T08:26:21;96807.78;;;14.82;100.00
5062;BME280;2351;50.812;12.872;2023-08-06T08:28:55;96807.41;;;14.85;100.00
5062;BME280;2351;50.812;12.872;2023-08-06T08:31:27;96806.19;;;14.87;100.00
5062;BME280;2351;50.812;12.872;2023-08-06T08:34:00;96803.97;;;14.91;100.00
5062;BME280;2351;50.812;12.872;2023-08-06T08:36:31;96809.94;;;14.93;100.00
5062;BME280;2351;50.812;12.872;2023-08-06T08:39:03;96800.50;;;14.90;100.00
5062;BME280;2351;50.812;12.872;2023-08-06T08:41:37;96796.25;;;14.96;100.00
5062;BME280;2351;50.812;12.872;2023-08-06T08:44:13;96796.44;;;14.95;100.00
5062;BME280;2351;50.812;12.872;2023-08-06T08:46:49;96788.91;;;14.98;100.00
5062;BME280;2351;50.812;12.872;2023-08-06T08:49:26;96794.66;;;15.02;100.00
5062;BME280;2351;50.812;12.872;2023-08-06T08:52:02;96780.59;;;15.08;100.00
5062;BME280;2351;50.812;12.872;2023-08-06T08:54:37;96778.63;;;15.17;100.00
5062;BME280;2351;50.812;12.872;2023-08-06T08:57:10;96781.81;;;15.27;100.00
5062;BME280;2351;50.812;12.872;2023-08-06T08:59:45;96786.00;;;15.36;100.00
5062;BME280;2351;50.812;12.872;2023-08-06T09:02:21;96783.78;;;15.40;100.00
5062;BME280;2351;50.812;12.872;2023-08-06T09:04:55;96773.31;;;15.39;100.00
5062;BME280;2351;50.812;12.872;2023-08-06T09:07:38;96788.75;;;15.43;100.00
5062;BME280;2351;50.812;12.872;2023-08-06T09:10:15;96787.91;;;15.43;100.00
5062;BME280;2351;50.812;12.872;2023-08-06T09:12:51;96789.34;;;15.45;100.00
5062;BME280;2351;50.812;12.872;2023-08-06T09:15:26;96791.31;;;15.58;100.00
5062;BME280;2351;50.812;12.872;2023-08-06T09:17:58;96785.84;;;15.66;100.00
5062;BME280;2351;50.812;12.872;2023-08-06T09:20:34;96781.31;;;15.67;100.00
5062;BME280;2351;50.812;12.872;2023-08-06T09:23:09;96770.91;;;15.72;100.00
5062;BME280;2351;50.812;12.872;2023-08-06T09:25:42;96774.97;;;15.68;100.00
5062;BME280;2351;50.812;12.872;2023-08-06T09:28:13;96771.13;;;15.71;100.00
5062;BME280;2351;50.812;12.872;2023-08-06T09:30:47;96771.97;;;15.78;100.00
5062;BME280;2351;50.812;12.872;2023-08-06T09:33:20;96773.88;;;15.84;100.00
5062;BME280;2351;50.812;12.872;2023-08-06T09:35:53;96779.72;;;15.94;100.00
5062;BME280;2351;50.812;12.872;2023-08-06T09:38:25;96773.41;;;16.02;100.00
5062;BME280;2351;50.812;12.872;2023-08-06T09:41:08;96775.09;;;16.10;100.00
5062;BME280;2351;50.812;12.872;2023-08-06T09:43:41;96766.69;;;16.06;100.00
5062;BME280;2351;50.812;12.872;2023-08-06T09:46:14;96761.75;;;16.10;100.00
5062;BME280;2351;50.812;12.872;2023-08-06T09:48:47;96769.00;;;16.16;100.00
5062;BME280;2351;50.812;12.872;2023-08-06T09:51:19;96763.47;;;16.24;100.00
5062;BME280;2351;50.812;12.872;2023-08-06T09:53:51;96757.13;;;16.25;100.00
5062;BME280;2351;50.812;12.872;2023-08-06T09:56:24;96747.47;;;16.24;100.00
5062;BME280;2351;50.812;12.872;2023-08-06T09:58:57;96747.69;;;16.30;100.00
5062;BME280;2351;50.812;12.872;2023-08-06T10:01:31;96742.63;;;16.41;100.00
5062;BME280;2351;50.812;12.872;2023-08-06T10:04:05;96748.38;;;16.45;100.00
5062;BME280;2351;50.812;12.872;2023-08-06T10:06:39;96743.09;;;16.52;100.00
5062;BME280;2351;50.812;12.872;2023-08-06T10:09:11;96740.63;;;16.57;100.00
5062;BME280;2351;50.812;12.872;2023-08-06T10:11:47;96737.38;;;16.68;100.00
5062;BME280;2351;50.812;12.872;2023-08-06T10:14:24;96731.84;;;16.70;100.00
5062;BME280;2351;50.812;12.872;2023-08-06T10:16:59;96733.28;;;16.66;100.00
5062;BME280;2351;50.812;12.872;2023-08-06T10:19:31;96731.81;;;16.63;100.00
5062;BME280;2351;50.812;12.872;2023-08-06T10:22:10;96731.03;;;16.76;100.00
5062;BME280;2351;50.812;12.872;2023-08-06T10:24:49;96724.88;;;16.76;100.00
5062;BME280;2351;50.812;12.872;2023-08-06T10:27:27;96718.94;;;16.80;99.88
5062;BME280;2351;50.812;12.872;2023-08-06T10:30:21;96721.84;;;16.92;100.00
5062;BME280;2351;50.812;12.872;2023-08-06T10:32:56;96710.97;;;17.00;98.85
5062;BME280;2351;50.812;12.872;2023-08-06T10:35:34;96712.84;;;17.13;99.69
5062;BME280;2351;50.812;12.872;2023-08-06T10:38:08;96707.50;;;17.27;99.16
5062;BME280;2351;50.812;12.872;2023-08-06T10:40:48;96712.22;;;17.38;99.35
5062;BME280;2351;50.812;12.872;2023-08-06T10:43:27;96700.09;;;17.49;98.88
5062;BME280;2351;50.812;12.872;2023-08-06T10:46:02;96709.75;;;17.57;98.23
5062;BME280;2351;50.812;12.872;2023-08-06T10:48:36;96695.34;;;17.58;97.38
5062;BME280;2351;50.812;12.872;2023-08-06T10:51:10;96693.50;;;17.58;96.94
5062;BME280;2351;50.812;12.872;2023-08-06T10:53:43;96698.88;;;17.58;96.47
5062;BME280;2351;50.812;12.872;2023-08-06T10:56:15;96699.69;;;17.45;94.39
5062;BME280;2351;50.812;12.872;2023-08-06T10:58:48;96692.31;;;17.41;93.80
5062;BME280;2351;50.812;12.872;2023-08-06T11:01:24;96693.50;;;17.38;94.12
5062;BME280;2351;50.812;12.872;2023-08-06T11:04:01;96688.38;;;17.43;94.89
5062;BME280;2351;50.812;12.872;2023-08-06T11:06:33;96684.66;;;17.51;95.17
5062;BME280;2351;50.812;12.872;2023-08-06T11:09:05;96677.06;;;17.61;95.44
5062;BME280;2351;50.812;12.872;2023-08-06T11:11:37;96677.44;;;17.65;94.72
5062;BME280;2351;50.812;12.872;2023-08-06T11:14:15;96671.69;;;17.55;92.52
5062;BME280;2351;50.812;12.872;2023-08-06T11:16:46;96672.53;;;17.55;93.13
5062;BME280;2351;50.812;12.872;2023-08-06T11:19:20;96667.19;;;17.55;92.76
5062;BME280;2351;50.812;12.872;2023-08-06T11:21:54;96669.66;;;17.64;92.65
5062;BME280;2351;50.812;12.872;2023-08-06T11:24:29;96659.13;;;17.62;91.99
5062;BME280;2351;50.812;12.872;2023-08-06T11:27:02;96655.44;;;17.63;90.75
5062;BME280;2351;50.812;12.872;2023-08-06T11:29:37;96655.63;;;17.68;91.27
5062;BME280;2351;50.812;12.872;2023-08-06T11:32:11;96648.59;;;17.81;91.55
5062;BME280;2351;50.812;12.872;2023-08-06T11:34:44;96643.66;;;17.91;91.01
5062;BME280;2351;50.812;12.872;2023-08-06T11:37:20;96646.09;;;17.99;90.64
5062;BME280;2351;50.812;12.872;2023-08-06T11:39:54;96640.31;;;18.02;89.43
5062;BME280;2351;50.812;12.872;2023-08-06T11:42:31;96640.31;;;18.02;88.34
5062;BME280;2351;50.812;12.872;2023-08-06T11:45:03;96649.19;;;18.03;88.20
5062;BME280;2351;50.812;12.872;2023-08-06T11:47:38;96641.56;;;18.06;88.09
5062;BME280;2351;50.812;12.872;2023-08-06T11:50:21;96641.09;;;18.16;88.28
5062;BME280;2351;50.812;12.872;2023-08-06T11:52:57;96633.69;;;18.18;86.68
5062;BME280;2351;50.812;12.872;2023-08-06T11:55:30;96631.63;;;18.20;86.74
5062;BME280;2351;50.812;12.872;2023-08-06T11:58:03;96642.56;;;18.19;85.41
5062;BME280;2351;50.812;12.872;2023-08-06T12:00:36;96641.06;;;18.23;86.18
5062;BME280;2351;50.812;12.872;2023-08-06T12:03:09;96637.31;;;18.38;86.81
5062;BME280;2351;50.812;12.872;2023-08-06T12:05:44;96630.22;;;18.50;86.33
5062;BME280;2351;50.812;12.872;2023-08-06T12:08:17;96629.56;;;18.55;86.03
5062;BME280;2351;50.812;12.872;2023-08-06T12:10:48;96632.84;;;18.57;85.26
5062;BME280;2351;50.812;12.872;2023-08-06T12:13:21;96626.88;;;18.55;84.36
5062;BME280;2351;50.812;12.872;2023-08-06T12:15:53;96623.59;;;18.59;84.33
5062;BME280;2351;50.812;12.872;2023-08-06T12:18:27;96627.03;;;18.66;84.44
5062;BME280;2351;50.812;12.872;2023-08-06T12:21:00;96625.56;;;18.71;83.37
5062;BME280;2351;50.812;12.872;2023-08-06T12:23:32;96622.22;;;18.82;83.63
5062;BME280;2351;50.812;12.872;2023-08-06T12:26:04;96619.41;;;18.70;80.55
5062;BME280;2351;50.812;12.872;2023-08-06T12:28:36;96618.00;;;18.93;81.11
5062;BME280;2351;50.812;12.872;2023-08-06T12:31:07;96606.81;;;19.03;80.84
5062;BME280;2351;50.812;12.872;2023-08-06T12:33:39;96602.72;;;18.93;76.87
5062;BME280;2351;50.812;12.872;2023-08-06T12:36:12;96614.22;;;18.75;75.95
5062;BME280;2351;50.812;12.872;2023-08-06T12:38:44;96605.88;;;18.58;74.93
5062;BME280;2351;50.812;12.872;2023-08-06T12:41:16;96612.81;;;18.66;76.27
5062;BME280;2351;50.812;12.872;2023-08-06T12:43:48;96608.63;;;18.77;76.97
5062;BME280;2351;50.812;12.872;2023-08-06T12:46:20;96604.06;;;18.84;75.74
5062;BME280;2351;50.812;12.872;2023-08-06T12:48:51;96608.06;;;19.00;77.40
5062;BME280;2351;50.812;12.872;2023-08-06T12:51:25;96601.06;;;19.24;77.86
5062;BME280;2351;50.812;12.872;2023-08-06T12:53:56;96602.28;;;19.47;77.93
5062;BME280;2351;50.812;12.872;2023-08-06T12:56:28;96597.97;;;19.65;74.84
5062;BME280;2351;50.812;12.872;2023-08-06T12:59:00;96595.97;;;19.79;76.07
5062;BME280;2351;50.812;12.872;2023-08-06T13:01:31;96596.94;;;19.84;75.15
5062;BME280;2351;50.812;12.872;2023-08-06T13:04:03;96585.34;;;19.91;70.84
5062;BME280;2351;50.812;12.872;2023-08-06T13:06:37;96588.88;;;20.03;73.57
5062;BME280;2351;50.812;12.872;2023-08-06T13:09:10;96588.09;;;20.33;73.96
5062;BME280;2351;50.812;12.872;2023-08-06T13:11:42;96580.19;;;20.38;72.27
5062;BME280;2351;50.812;12.872;2023-08-06T13:14:16;96583.47;;;20.40;71.57
5062;BME280;2351;50.812;12.872;2023-08-06T13:23:43;96578.16;;;20.03;69.81
5062;BME280;2351;50.812;12.872;2023-08-06T13:26:15;96577.78;;;19.99;69.41
5062;BME280;2351;50.812;12.872;2023-08-06T13:28:47;96579.28;;;19.77;70.37
5062;BME280;2351;50.812;12.872;2023-08-06T13:31:19;96577.63;;;19.57;72.07
5062;BME280;2351;50.812;12.872;2023-08-06T13:33:51;96581.34;;;19.37;74.02
5062;BME280;2351;50.812;12.872;2023-08-06T13:36:26;96572.28;;;19.13;74.60
5062;BME280;2351;50.812;12.872;2023-08-06T13:38:59;96569.53;;;18.94;77.79
5062;BME280;2351;50.812;12.872;2023-08-06T13:41:31;96567.72;;;18.88;79.02